sensor_id;sensor_type;location;lat;lon;timestamp;temperature;humidity
48806;DHT22;34625;47.176;27.548;2022-08-19T00:00:36;28.90;63.50
48806;DHT22;34625;47.176;27.548;2022-08-19T00:03:04;28.90;63.50
48806;DHT22;34625;47.176;27.548;2022-08-19T00:05:30;28.90;63.40
48806;DHT22;34625;47.176;27.548;2022-08-19T00:07:57;28.80;63.40
48806;DHT22;34625;47.176;27.548;2022-08-19T00:10:23;28.90;63.40
48806;DHT22;34625;47.176;27.548;2022-08-19T00:12:50;28.90;63.40
48806;DHT22;34625;47.176;27.548;2022-08-19T00:15:19;28.80;63.40
48806;DHT22;34625;47.176;27.548;2022-08-19T00:17:46;28.70;63.40
48806;DHT22;34625;47.176;27.548;2022-08-19T00:20:15;28.70;63.40
48806;DHT22;34625;47.176;27.548;2022-08-19T00:22:44;28.90;63.40
48806;DHT22;34625;47.176;27.548;2022-08-19T00:25:11;28.80;63.40
48806;DHT22;34625;47.176;27.548;2022-08-19T00:27:37;28.90;63.40
48806;DHT22;34625;47.176;27.548;2022-08-19T00:30:04;28.70;63.40
48806;DHT22;34625;47.176;27.548;2022-08-19T00:32:31;28.80;63.50
48806;DHT22;34625;47.176;27.548;2022-08-19T00:34:57;28.80;63.60
48806;DHT22;34625;47.176;27.548;2022-08-19T00:37:24;28.70;63.80
48806;DHT22;34625;47.176;27.548;2022-08-19T00:39:51;28.80;63.80
48806;DHT22;34625;47.176;27.548;2022-08-19T00:42:19;28.60;63.90
48806;DHT22;34625;47.176;27.548;2022-08-19T00:44:46;28.70;63.90
48806;DHT22;34625;47.176;27.548;2022-08-19T00:47:13;28.70;63.90
48806;DHT22;34625;47.176;27.548;2022-08-19T00:49:47;28.80;63.90
48806;DHT22;34625;47.176;27.548;2022-08-19T00:52:22;28.80;63.90
48806;DHT22;34625;47.176;27.548;2022-08-19T00:54:49;28.80;63.90
48806;DHT22;34625;47.176;27.548;2022-08-19T00:57:19;28.70;63.90
48806;DHT22;34625;47.176;27.548;2022-08-19T00:59:48;28.70;63.90
48806;DHT22;34625;47.176;27.548;2022-08-19T01:02:16;28.70;63.90
48806;DHT22;34625;47.176;27.548;2022-08-19T01:04:43;28.80;63.80
48806;DHT22;34625;47.176;27.548;2022-08-19T01:07:09;28.80;63.80
48806;DHT22;34625;47.176;27.548;2022-08-19T01:09:35;28.80;63.80
48806;DHT22;34625;47.176;27.548;2022-08-19T01:12:01;28.80;63.70
48806;DHT22;34625;47.176;27.548;2022-08-19T01:14:28;28.80;63.80
48806;DHT22;34625;47.176;27.548;2022-08-19T01:16:55;28.80;63.80
48806;DHT22;34625;47.176;27.548;2022-08-19T01:19:29;28.70;63.80
48806;DHT22;34625;47.176;27.548;2022-08-19T01:22:08;28.70;63.80
48806;DHT22;34625;47.176;27.548;2022-08-19T01:24:38;28.70;63.80
48806;DHT22;34625;47.176;27.548;2022-08-19T01:27:05;28.70;63.70
48806;DHT22;34625;47.176;27.548;2022-08-19T01:29:31;28.90;63.70
48806;DHT22;34625;47.176;27.548;2022-08-19T01:31:58;28.70;63.60
48806;DHT22;34625;47.176;27.548;2022-08-19T01:34:25;28.70;63.70
48806;DHT22;34625;47.176;27.548;2022-08-19T01:36:51;28.70;63.90
48806;DHT22;34625;47.176;27.548;2022-08-19T01:39:21;28.60;63.90
48806;DHT22;34625;47.176;27.548;2022-08-19T01:41:47;28.70;64.00
48806;DHT22;34625;47.176;27.548;2022-08-19T01:44:14;28.70;64.00
48806;DHT22;34625;47.176;27.548;2022-08-19T01:46:41;28.80;64.00
48806;DHT22;34625;47.176;27.548;2022-08-19T01:49:08;28.70;64.00
48806;DHT22;34625;47.176;27.548;2022-08-19T01:51:34;28.70;63.90
48806;DHT22;34625;47.176;27.548;2022-08-19T01:54:00;28.70;64.00
48806;DHT22;34625;47.176;27.548;2022-08-19T01:56:27;28.70;64.00
48806;DHT22;34625;47.176;27.548;2022-08-19T01:59:03;28.70;64.00
48806;DHT22;34625;47.176;27.548;2022-08-19T02:01:30;28.70;64.00
48806;DHT22;34625;47.176;27.548;2022-08-19T02:04:00;28.90;63.90
48806;DHT22;34625;47.176;27.548;2022-08-19T02:06:27;28.80;64.00
48806;DHT22;34625;47.176;27.548;2022-08-19T02:08:53;28.80;63.90
48806;DHT22;34625;47.176;27.548;2022-08-19T02:11:23;28.70;63.80
48806;DHT22;34625;47.176;27.548;2022-08-19T02:13:53;28.80;63.80
48806;DHT22;34625;47.176;27.548;2022-08-19T02:16:19;28.70;63.90
48806;DHT22;34625;47.176;27.548;2022-08-19T02:18:46;28.80;63.90
48806;DHT22;34625;47.176;27.548;2022-08-19T02:21:15;28.70;63.80
48806;DHT22;34625;47.176;27.548;2022-08-19T02:23:42;28.60;63.80
48806;DHT22;34625;47.176;27.548;2022-08-19T02:26:09;28.70;63.80
48806;DHT22;34625;47.176;27.548;2022-08-19T02:28:35;28.70;63.70
48806;DHT22;34625;47.176;27.548;2022-08-19T02:31:03;28.70;63.60
48806;DHT22;34625;47.176;27.548;2022-08-19T02:33:30;28.70;63.70
48806;DHT22;34625;47.176;27.548;2022-08-19T02:35:55;28.50;63.80
48806;DHT22;34625;47.176;27.548;2022-08-19T02:38:22;28.60;63.90
48806;DHT22;34625;47.176;27.548;2022-08-19T02:41:17;28.70;63.90
48806;DHT22;34625;47.176;27.548;2022-08-19T02:43:43;28.60;63.90
48806;DHT22;34625;47.176;27.548;2022-08-19T02:46:26;28.60;63.90
48806;DHT22;34625;47.176;27.548;2022-08-19T02:48:53;28.60;63.90
48806;DHT22;34625;47.176;27.548;2022-08-19T02:51:36;28.60;64.00
48806;DHT22;34625;47.176;27.548;2022-08-19T02:54:03;28.60;64.00
48806;DHT22;34625;47.176;27.548;2022-08-19T02:56:29;28.70;64.00
48806;DHT22;34625;47.176;27.548;2022-08-19T02:58:57;28.70;64.00
48806;DHT22;34625;47.176;27.548;2022-08-19T03:01:31;28.70;64.00
48806;DHT22;34625;47.176;27.548;2022-08-19T03:04:00;28.80;63.90
48806;DHT22;34625;47.176;27.548;2022-08-19T03:06:27;28.70;63.90
48806;DHT22;34625;47.176;27.548;2022-08-19T03:08:54;28.70;63.90
48806;DHT22;34625;47.176;27.548;2022-08-19T03:11:24;28.70;63.80
48806;DHT22;34625;47.176;27.548;2022-08-19T03:13:51;28.70;63.80
48806;DHT22;34625;47.176;27.548;2022-08-19T03:16:18;28.70;63.80
48806;DHT22;34625;47.176;27.548;2022-08-19T03:18:45;28.80;63.90
48806;DHT22;34625;47.176;27.548;2022-08-19T03:21:21;28.50;63.90
48806;DHT22;34625;47.176;27.548;2022-08-19T03:23:47;28.60;63.80
48806;DHT22;34625;47.176;27.548;2022-08-19T03:26:13;28.80;63.80
48806;DHT22;34625;47.176;27.548;2022-08-19T03:28:41;28.60;63.80
48806;DHT22;34625;47.176;27.548;2022-08-19T03:31:11;28.70;63.80
48806;DHT22;34625;47.176;27.548;2022-08-19T03:33:38;28.50;63.70
48806;DHT22;34625;47.176;27.548;2022-08-19T03:36:08;28.50;63.70
48806;DHT22;34625;47.176;27.548;2022-08-19T03:38:38;28.60;63.70
48806;DHT22;34625;47.176;27.548;2022-08-19T03:41:09;28.50;63.40
48806;DHT22;34625;47.176;27.548;2022-08-19T03:43:37;28.60;63.60
48806;DHT22;34625;47.176;27.548;2022-08-19T03:46:09;28.60;63.50
48806;DHT22;34625;47.176;27.548;2022-08-19T03:48:37;28.60;63.40
48806;DHT22;34625;47.176;27.548;2022-08-19T03:51:06;28.60;63.50
48806;DHT22;34625;47.176;27.548;2022-08-19T03:53:34;28.60;63.50
48806;DHT22;34625;47.176;27.548;2022-08-19T03:56:00;28.50;62.20
48806;DHT22;34625;47.176;27.548;2022-08-19T03:58:29;28.50;60.50
48806;DHT22;34625;47.176;27.548;2022-08-19T04:00:56;28.40;59.60
48806;DHT22;34625;47.176;27.548;2022-08-19T04:03:23;28.30;60.40
48806;DHT22;34625;47.176;27.548;2022-08-19T04:05:50;28.30;60.90
48806;DHT22;34625;47.176;27.548;2022-08-19T04:08:16;28.30;60.50
48806;DHT22;34625;47.176;27.548;2022-08-19T04:10:47;28.30;60.10
48806;DHT22;34625;47.176;27.548;2022-08-19T04:13:14;28.30;61.10
48806;DHT22;34625;47.176;27.548;2022-08-19T04:15:42;28.60;63.00
48806;DHT22;34625;47.176;27.548;2022-08-19T04:18:09;29.00;66.10
48806;DHT22;34625;47.176;27.548;2022-08-19T04:20:46;29.20;65.80
48806;DHT22;34625;47.176;27.548;2022-08-19T04:23:13;29.00;63.10
48806;DHT22;34625;47.176;27.548;2022-08-19T04:25:42;29.00;62.60
48806;DHT22;34625;47.176;27.548;2022-08-19T04:28:11;29.00;61.80
48806;DHT22;34625;47.176;27.548;2022-08-19T04:30:42;28.80;61.20
48806;DHT22;34625;47.176;27.548;2022-08-19T04:33:10;28.90;61.20
48806;DHT22;34625;47.176;27.548;2022-08-19T04:35:42;28.90;61.20
48806;DHT22;34625;47.176;27.548;2022-08-19T04:38:09;28.80;61.30
48806;DHT22;34625;47.176;27.548;2022-08-19T04:40:43;28.90;61.30
48806;DHT22;34625;47.176;27.548;2022-08-19T04:43:29;28.90;61.40
48806;DHT22;34625;47.176;27.548;2022-08-19T04:45:55;28.80;61.50
48806;DHT22;34625;47.176;27.548;2022-08-19T04:48:21;28.90;61.40
48806;DHT22;34625;47.176;27.548;2022-08-19T04:50:53;28.80;62.30
48806;DHT22;34625;47.176;27.548;2022-08-19T04:53:28;28.80;60.40
48806;DHT22;34625;47.176;27.548;2022-08-19T04:55:59;28.70;59.50
48806;DHT22;34625;47.176;27.548;2022-08-19T04:58:29;28.80;59.60
48806;DHT22;34625;47.176;27.548;2022-08-19T05:00:55;28.80;60.20
48806;DHT22;34625;47.176;27.548;2022-08-19T05:03:21;28.60;60.30
48806;DHT22;34625;47.176;27.548;2022-08-19T05:05:48;28.70;60.40
48806;DHT22;34625;47.176;27.548;2022-08-19T05:08:17;28.70;60.60
48806;DHT22;34625;47.176;27.548;2022-08-19T05:10:49;28.80;61.40
48806;DHT22;34625;47.176;27.548;2022-08-19T05:13:17;28.80;62.40
48806;DHT22;34625;47.176;27.548;2022-08-19T05:15:44;28.70;62.80
48806;DHT22;34625;47.176;27.548;2022-08-19T05:18:18;28.80;62.40
48806;DHT22;34625;47.176;27.548;2022-08-19T05:21:12;28.80;62.50
48806;DHT22;34625;47.176;27.548;2022-08-19T05:23:57;28.90;63.50
48806;DHT22;34625;47.176;27.548;2022-08-19T05:26:24;28.80;63.90
48806;DHT22;34625;47.176;27.548;2022-08-19T05:28:52;28.90;63.80
48806;DHT22;34625;47.176;27.548;2022-08-19T05:31:19;28.90;63.00
48806;DHT22;34625;47.176;27.548;2022-08-19T05:33:45;28.80;62.90
48806;DHT22;34625;47.176;27.548;2022-08-19T05:36:11;28.90;63.00
48806;DHT22;34625;47.176;27.548;2022-08-19T05:38:38;28.80;62.90
48806;DHT22;34625;47.176;27.548;2022-08-19T05:41:12;28.80;63.50
48806;DHT22;34625;47.176;27.548;2022-08-19T05:43:39;28.90;63.70
48806;DHT22;34625;47.176;27.548;2022-08-19T05:46:06;28.90;62.50
48806;DHT22;34625;47.176;27.548;2022-08-19T05:48:33;28.90;62.30
48806;DHT22;34625;47.176;27.548;2022-08-19T05:51:04;28.80;62.10
48806;DHT22;34625;47.176;27.548;2022-08-19T05:53:32;28.80;61.80
48806;DHT22;34625;47.176;27.548;2022-08-19T05:56:08;28.80;61.10
48806;DHT22;34625;47.176;27.548;2022-08-19T05:58:35;28.90;61.10
48806;DHT22;34625;47.176;27.548;2022-08-19T06:01:03;28.90;61.40
48806;DHT22;34625;47.176;27.548;2022-08-19T06:03:34;28.70;61.40
48806;DHT22;34625;47.176;27.548;2022-08-19T06:06:07;28.70;60.30
48806;DHT22;34625;47.176;27.548;2022-08-19T06:08:34;28.80;60.40
48806;DHT22;34625;47.176;27.548;2022-08-19T06:11:22;28.80;60.20
48806;DHT22;34625;47.176;27.548;2022-08-19T06:13:51;28.70;59.80
48806;DHT22;34625;47.176;27.548;2022-08-19T06:16:21;28.60;59.90
48806;DHT22;34625;47.176;27.548;2022-08-19T06:18:55;28.60;60.20
48806;DHT22;34625;47.176;27.548;2022-08-19T06:21:24;28.50;60.40
48806;DHT22;34625;47.176;27.548;2022-08-19T06:23:51;28.70;60.40
48806;DHT22;34625;47.176;27.548;2022-08-19T06:26:19;28.60;60.50
48806;DHT22;34625;47.176;27.548;2022-08-19T06:28:46;28.80;60.10
48806;DHT22;34625;47.176;27.548;2022-08-19T06:31:17;28.80;60.40
48806;DHT22;34625;47.176;27.548;2022-08-19T06:33:44;28.80;60.30
48806;DHT22;34625;47.176;27.548;2022-08-19T06:36:25;28.80;60.40
48806;DHT22;34625;47.176;27.548;2022-08-19T06:38:58;28.90;60.20
48806;DHT22;34625;47.176;27.548;2022-08-19T06:41:25;28.90;60.30
48806;DHT22;34625;47.176;27.548;2022-08-19T06:43:52;28.80;60.20
48806;DHT22;34625;47.176;27.548;2022-08-19T06:46:19;28.90;60.30
48806;DHT22;34625;47.176;27.548;2022-08-19T06:48:46;29.00;59.90
48806;DHT22;34625;47.176;27.548;2022-08-19T06:51:15;28.90;60.10
48806;DHT22;34625;47.176;27.548;2022-08-19T06:53:48;28.90;59.60
48806;DHT22;34625;47.176;27.548;2022-08-19T06:56:20;29.00;60.30
48806;DHT22;34625;47.176;27.548;2022-08-19T06:58:47;28.90;60.10
48806;DHT22;34625;47.176;27.548;2022-08-19T07:01:19;28.80;60.30
48806;DHT22;34625;47.176;27.548;2022-08-19T07:03:45;29.00;61.10
48806;DHT22;34625;47.176;27.548;2022-08-19T07:06:14;29.00;61.10
48806;DHT22;34625;47.176;27.548;2022-08-19T07:08:44;29.00;61.00
48806;DHT22;34625;47.176;27.548;2022-08-19T07:11:16;28.90;60.70
48806;DHT22;34625;47.176;27.548;2022-08-19T07:13:44;29.00;61.10
48806;DHT22;34625;47.176;27.548;2022-08-19T07:16:13;29.00;61.10
48806;DHT22;34625;47.176;27.548;2022-08-19T07:18:41;29.00;61.00
48806;DHT22;34625;47.176;27.548;2022-08-19T07:21:12;28.90;60.40
48806;DHT22;34625;47.176;27.548;2022-08-19T07:23:39;29.00;60.90
48806;DHT22;34625;47.176;27.548;2022-08-19T07:26:23;29.00;60.80
48806;DHT22;34625;47.176;27.548;2022-08-19T07:28:50;29.10;60.80
48806;DHT22;34625;47.176;27.548;2022-08-19T07:31:18;28.90;60.20
48806;DHT22;34625;47.176;27.548;2022-08-19T07:33:46;28.90;60.30
48806;DHT22;34625;47.176;27.548;2022-08-19T07:36:15;29.00;61.30
48806;DHT22;34625;47.176;27.548;2022-08-19T07:38:45;28.90;60.90
48806;DHT22;34625;47.176;27.548;2022-08-19T07:41:18;28.90;61.00
48806;DHT22;34625;47.176;27.548;2022-08-19T07:43:44;28.80;60.90
48806;DHT22;34625;47.176;27.548;2022-08-19T07:46:12;28.90;61.00
48806;DHT22;34625;47.176;27.548;2022-08-19T07:48:41;28.90;61.00
48806;DHT22;34625;47.176;27.548;2022-08-19T07:51:09;28.80;60.90
48806;DHT22;34625;47.176;27.548;2022-08-19T07:53:37;28.80;60.90
48806;DHT22;34625;47.176;27.548;2022-08-19T07:56:04;29.00;61.50
48806;DHT22;34625;47.176;27.548;2022-08-19T07:58:34;28.80;60.90
48806;DHT22;34625;47.176;27.548;2022-08-19T08:01:01;28.90;60.90
48806;DHT22;34625;47.176;27.548;2022-08-19T08:03:28;28.80;60.90
48806;DHT22;34625;47.176;27.548;2022-08-19T08:06:14;28.80;61.00
48806;DHT22;34625;47.176;27.548;2022-08-19T08:09:03;29.00;61.90
48806;DHT22;34625;47.176;27.548;2022-08-19T08:11:46;28.90;61.50
48806;DHT22;34625;47.176;27.548;2022-08-19T08:14:22;28.80;62.30
48806;DHT22;34625;47.176;27.548;2022-08-19T08:16:49;29.00;62.80
48806;DHT22;34625;47.176;27.548;2022-08-19T08:19:16;28.90;63.00
48806;DHT22;34625;47.176;27.548;2022-08-19T08:21:43;29.10;63.90
48806;DHT22;34625;47.176;27.548;2022-08-19T08:24:10;29.00;63.80
48806;DHT22;34625;47.176;27.548;2022-08-19T08:26:36;29.00;63.50
48806;DHT22;34625;47.176;27.548;2022-08-19T08:29:02;29.00;62.90
48806;DHT22;34625;47.176;27.548;2022-08-19T08:31:28;29.00;63.00
48806;DHT22;34625;47.176;27.548;2022-08-19T08:33:55;29.00;63.00
48806;DHT22;34625;47.176;27.548;2022-08-19T08:36:21;29.00;63.10
48806;DHT22;34625;47.176;27.548;2022-08-19T08:38:47;29.00;63.00
48806;DHT22;34625;47.176;27.548;2022-08-19T08:43:47;29.00;62.50
48806;DHT22;34625;47.176;27.548;2022-08-19T08:46:35;29.10;62.50
48806;DHT22;34625;47.176;27.548;2022-08-19T08:51:42;29.10;65.60
48806;DHT22;34625;47.176;27.548;2022-08-19T08:54:12;29.20;64.90
48806;DHT22;34625;47.176;27.548;2022-08-19T08:56:40;29.30;63.60
48806;DHT22;34625;47.176;27.548;2022-08-19T08:59:30;29.20;62.00
48806;DHT22;34625;47.176;27.548;2022-08-19T09:01:58;29.20;61.10
48806;DHT22;34625;47.176;27.548;2022-08-19T09:04:24;29.20;61.50
48806;DHT22;34625;47.176;27.548;2022-08-19T09:07:26;29.30;62.00
48806;DHT22;34625;47.176;27.548;2022-08-19T09:15:29;29.20;61.80
48806;DHT22;34625;47.176;27.548;2022-08-19T09:18:00;29.20;61.80
48806;DHT22;34625;47.176;27.548;2022-08-19T09:20:27;29.20;62.00
48806;DHT22;34625;47.176;27.548;2022-08-19T09:22:53;29.20;61.90
48806;DHT22;34625;47.176;27.548;2022-08-19T09:25:21;29.30;61.80
48806;DHT22;34625;47.176;27.548;2022-08-19T09:27:49;29.10;61.50
48806;DHT22;34625;47.176;27.548;2022-08-19T09:30:20;29.30;61.40
48806;DHT22;34625;47.176;27.548;2022-08-19T09:32:48;29.40;63.20
48806;DHT22;34625;47.176;27.548;2022-08-19T09:35:14;29.50;61.20
48806;DHT22;34625;47.176;27.548;2022-08-19T09:37:42;29.60;64.70
48806;DHT22;34625;47.176;27.548;2022-08-19T09:40:09;29.50;58.30
48806;DHT22;34625;47.176;27.548;2022-08-19T09:42:36;29.50;60.20
48806;DHT22;34625;47.176;27.548;2022-08-19T09:45:03;29.50;61.10
48806;DHT22;34625;47.176;27.548;2022-08-19T09:47:30;29.40;61.20
48806;DHT22;34625;47.176;27.548;2022-08-19T09:49:56;29.60;65.90
48806;DHT22;34625;47.176;27.548;2022-08-19T09:52:23;30.00;67.40
48806;DHT22;34625;47.176;27.548;2022-08-19T09:54:52;30.60;67.80
48806;DHT22;34625;47.176;27.548;2022-08-19T09:57:18;30.80;61.90
48806;DHT22;34625;47.176;27.548;2022-08-19T09:59:44;30.50;60.20
48806;DHT22;34625;47.176;27.548;2022-08-19T10:02:10;30.30;60.00
48806;DHT22;34625;47.176;27.548;2022-08-19T10:04:37;30.20;60.20
48806;DHT22;34625;47.176;27.548;2022-08-19T10:07:22;30.10;59.50
48806;DHT22;34625;47.176;27.548;2022-08-19T10:09:48;29.90;59.90
48806;DHT22;34625;47.176;27.548;2022-08-19T10:12:14;30.10;60.20
48806;DHT22;34625;47.176;27.548;2022-08-19T10:14:41;30.00;57.70
48806;DHT22;34625;47.176;27.548;2022-08-19T10:17:07;29.90;59.00
48806;DHT22;34625;47.176;27.548;2022-08-19T10:19:33;29.80;59.60
48806;DHT22;34625;47.176;27.548;2022-08-19T10:22:07;29.80;60.10
48806;DHT22;34625;47.176;27.548;2022-08-19T10:24:34;29.90;60.30
48806;DHT22;34625;47.176;27.548;2022-08-19T10:27:01;29.80;60.40
48806;DHT22;34625;47.176;27.548;2022-08-19T10:29:32;29.80;60.30
48806;DHT22;34625;47.176;27.548;2022-08-19T10:32:05;29.90;60.60
48806;DHT22;34625;47.176;27.548;2022-08-19T10:34:34;29.80;60.30
48806;DHT22;34625;47.176;27.548;2022-08-19T10:37:01;29.80;59.40
48806;DHT22;34625;47.176;27.548;2022-08-19T10:39:29;29.70;60.50
48806;DHT22;34625;47.176;27.548;2022-08-19T10:41:55;29.80;60.40
48806;DHT22;34625;47.176;27.548;2022-08-19T10:44:22;29.70;60.50
48806;DHT22;34625;47.176;27.548;2022-08-19T10:46:54;29.60;61.00
48806;DHT22;34625;47.176;27.548;2022-08-19T10:49:20;29.80;61.00
48806;DHT22;34625;47.176;27.548;2022-08-19T10:51:46;29.60;61.10
48806;DHT22;34625;47.176;27.548;2022-08-19T10:54:32;29.50;61.10
48806;DHT22;34625;47.176;27.548;2022-08-19T10:57:17;29.70;60.10
48806;DHT22;34625;47.176;27.548;2022-08-19T10:59:43;29.60;60.80
48806;DHT22;34625;47.176;27.548;2022-08-19T11:02:11;29.60;61.20
48806;DHT22;34625;47.176;27.548;2022-08-19T11:04:39;29.60;61.40
48806;DHT22;34625;47.176;27.548;2022-08-19T11:07:06;29.70;61.60
48806;DHT22;34625;47.176;27.548;2022-08-19T11:09:37;29.70;61.50
48806;DHT22;34625;47.176;27.548;2022-08-19T11:12:05;29.70;61.80
48806;DHT22;34625;47.176;27.548;2022-08-19T11:14:31;29.60;61.60
48806;DHT22;34625;47.176;27.548;2022-08-19T11:16:58;29.70;61.30
48806;DHT22;34625;47.176;27.548;2022-08-19T11:19:25;29.50;61.70
48806;DHT22;34625;47.176;27.548;2022-08-19T11:21:52;29.60;61.50
48806;DHT22;34625;47.176;27.548;2022-08-19T11:24:24;29.60;61.30
48806;DHT22;34625;47.176;27.548;2022-08-19T11:26:53;29.50;61.50
48806;DHT22;34625;47.176;27.548;2022-08-19T11:29:25;29.50;61.50
48806;DHT22;34625;47.176;27.548;2022-08-19T11:31:53;29.60;61.50
48806;DHT22;34625;47.176;27.548;2022-08-19T11:34:23;29.50;61.40
48806;DHT22;34625;47.176;27.548;2022-08-19T11:36:50;29.70;61.50
48806;DHT22;34625;47.176;27.548;2022-08-19T11:39:19;29.60;61.60
48806;DHT22;34625;47.176;27.548;2022-08-19T11:41:46;29.60;61.60
48806;DHT22;34625;47.176;27.548;2022-08-19T11:44:12;29.60;61.50
48806;DHT22;34625;47.176;27.548;2022-08-19T11:46:41;29.70;61.60
48806;DHT22;34625;47.176;27.548;2022-08-19T11:49:11;29.50;60.90
48806;DHT22;34625;47.176;27.548;2022-08-19T11:51:37;29.60;61.00
48806;DHT22;34625;47.176;27.548;2022-08-19T11:54:05;29.60;60.70
48806;DHT22;34625;47.176;27.548;2022-08-19T11:56:31;29.60;60.60
48806;DHT22;34625;47.176;27.548;2022-08-19T11:58:57;29.60;60.70
48806;DHT22;34625;47.176;27.548;2022-08-19T12:01:25;29.50;60.90
48806;DHT22;34625;47.176;27.548;2022-08-19T12:03:54;29.40;60.90
48806;DHT22;34625;47.176;27.548;2022-08-19T12:06:23;29.50;61.20
48806;DHT22;34625;47.176;27.548;2022-08-19T12:08:51;29.50;60.50
48806;DHT22;34625;47.176;27.548;2022-08-19T12:11:17;29.60;61.00
48806;DHT22;34625;47.176;27.548;2022-08-19T12:13:44;29.40;60.20
48806;DHT22;34625;47.176;27.548;2022-08-19T12:16:17;29.40;58.80
48806;DHT22;34625;47.176;27.548;2022-08-19T12:18:44;29.50;57.80
48806;DHT22;34625;47.176;27.548;2022-08-19T12:21:17;29.50;58.70
48806;DHT22;34625;47.176;27.548;2022-08-19T12:23:44;29.60;57.80
48806;DHT22;34625;47.176;27.548;2022-08-19T12:26:11;29.70;59.40
48806;DHT22;34625;47.176;27.548;2022-08-19T12:28:38;29.70;60.00
48806;DHT22;34625;47.176;27.548;2022-08-19T12:31:04;29.70;60.00
48806;DHT22;34625;47.176;27.548;2022-08-19T12:33:31;29.60;59.80
48806;DHT22;34625;47.176;27.548;2022-08-19T12:36:02;29.60;59.90
48806;DHT22;34625;47.176;27.548;2022-08-19T12:38:29;29.60;59.90
48806;DHT22;34625;47.176;27.548;2022-08-19T12:40:55;29.60;60.10
48806;DHT22;34625;47.176;27.548;2022-08-19T12:43:21;29.70;60.10
48806;DHT22;34625;47.176;27.548;2022-08-19T12:45:48;29.70;60.10
48806;DHT22;34625;47.176;27.548;2022-08-19T12:48:16;29.60;60.30
48806;DHT22;34625;47.176;27.548;2022-08-19T12:50:44;29.60;60.30
48806;DHT22;34625;47.176;27.548;2022-08-19T12:53:13;29.60;59.90
48806;DHT22;34625;47.176;27.548;2022-08-19T12:55:40;29.60;60.40
48806;DHT22;34625;47.176;27.548;2022-08-19T12:58:06;29.70;60.60
48806;DHT22;34625;47.176;27.548;2022-08-19T13:00:32;29.50;60.70
48806;DHT22;34625;47.176;27.548;2022-08-19T13:02:59;29.60;60.60
48806;DHT22;34625;47.176;27.548;2022-08-19T13:05:30;29.50;60.70
48806;DHT22;34625;47.176;27.548;2022-08-19T13:07:58;29.60;60.70
48806;DHT22;34625;47.176;27.548;2022-08-19T13:10:29;29.50;60.80
48806;DHT22;34625;47.176;27.548;2022-08-19T13:12:55;29.50;60.80
48806;DHT22;34625;47.176;27.548;2022-08-19T13:15:22;29.60;60.70
48806;DHT22;34625;47.176;27.548;2022-08-19T13:17:50;29.50;60.90
48806;DHT22;34625;47.176;27.548;2022-08-19T13:20:18;29.60;60.90
48806;DHT22;34625;47.176;27.548;2022-08-19T13:22:46;29.40;61.00
48806;DHT22;34625;47.176;27.548;2022-08-19T13:25:12;29.50;61.00
48806;DHT22;34625;47.176;27.548;2022-08-19T13:27:40;29.50;61.10
48806;DHT22;34625;47.176;27.548;2022-08-19T13:30:08;29.50;61.00
48806;DHT22;34625;47.176;27.548;2022-08-19T13:32:54;29.50;60.80
48806;DHT22;34625;47.176;27.548;2022-08-19T13:35:48;29.60;61.10
48806;DHT22;34625;47.176;27.548;2022-08-19T13:38:20;29.50;61.30
48806;DHT22;34625;47.176;27.548;2022-08-19T13:40:47;29.60;61.50
48806;DHT22;34625;47.176;27.548;2022-08-19T13:43:13;29.60;61.60
48806;DHT22;34625;47.176;27.548;2022-08-19T13:45:40;29.50;61.80
48806;DHT22;34625;47.176;27.548;2022-08-19T13:48:07;29.50;62.00
48806;DHT22;34625;47.176;27.548;2022-08-19T13:50:38;29.50;62.60
48806;DHT22;34625;47.176;27.548;2022-08-19T13:53:06;29.50;62.70
48806;DHT22;34625;47.176;27.548;2022-08-19T13:55:33;29.60;62.70
48806;DHT22;34625;47.176;27.548;2022-08-19T13:58:00;29.50;62.80
48806;DHT22;34625;47.176;27.548;2022-08-19T14:00:33;29.50;62.90
48806;DHT22;34625;47.176;27.548;2022-08-19T14:02:59;29.50;63.00
48806;DHT22;34625;47.176;27.548;2022-08-19T14:05:27;29.50;63.20
48806;DHT22;34625;47.176;27.548;2022-08-19T14:07:54;29.50;63.10
48806;DHT22;34625;47.176;27.548;2022-08-19T14:10:21;29.70;61.50
48806;DHT22;34625;47.176;27.548;2022-08-19T14:12:47;30.00;63.60
48806;DHT22;34625;47.176;27.548;2022-08-19T14:15:15;30.10;64.40
48806;DHT22;34625;47.176;27.548;2022-08-19T14:17:45;29.90;62.50
48806;DHT22;34625;47.176;27.548;2022-08-19T14:20:13;29.90;61.80
48806;DHT22;34625;47.176;27.548;2022-08-19T14:22:42;29.90;61.90
48806;DHT22;34625;47.176;27.548;2022-08-19T14:25:12;29.90;62.00
48806;DHT22;34625;47.176;27.548;2022-08-19T14:27:39;29.80;61.90
48806;DHT22;34625;47.176;27.548;2022-08-19T14:30:09;29.80;62.00
48806;DHT22;34625;47.176;27.548;2022-08-19T14:32:36;29.90;62.00
48806;DHT22;34625;47.176;27.548;2022-08-19T14:35:03;29.80;62.50
48806;DHT22;34625;47.176;27.548;2022-08-19T14:37:30;29.80;62.50
48806;DHT22;34625;47.176;27.548;2022-08-19T14:39:58;29.80;62.60
48806;DHT22;34625;47.176;27.548;2022-08-19T14:42:24;29.80;62.80
48806;DHT22;34625;47.176;27.548;2022-08-19T14:44:50;29.80;62.80
48806;DHT22;34625;47.176;27.548;2022-08-19T14:47:16;29.90;62.80
48806;DHT22;34625;47.176;27.548;2022-08-19T14:49:42;29.90;63.00
48806;DHT22;34625;47.176;27.548;2022-08-19T14:52:09;29.70;62.90
48806;DHT22;34625;47.176;27.548;2022-08-19T14:54:35;29.80;63.00
48806;DHT22;34625;47.176;27.548;2022-08-19T14:57:01;29.80;63.00
48806;DHT22;34625;47.176;27.548;2022-08-19T14:59:27;29.90;63.10
48806;DHT22;34625;47.176;27.548;2022-08-19T15:01:53;29.70;63.00
48806;DHT22;34625;47.176;27.548;2022-08-19T15:04:19;29.80;62.70
48806;DHT22;34625;47.176;27.548;2022-08-19T15:06:45;29.70;62.90
48806;DHT22;34625;47.176;27.548;2022-08-19T15:09:11;29.70;62.80
48806;DHT22;34625;47.176;27.548;2022-08-19T15:11:37;29.70;62.60
48806;DHT22;34625;47.176;27.548;2022-08-19T15:14:04;29.80;62.50
48806;DHT22;34625;47.176;27.548;2022-08-19T15:16:31;29.80;62.00
48806;DHT22;34625;47.176;27.548;2022-08-19T15:18:58;29.80;62.00
48806;DHT22;34625;47.176;27.548;2022-08-19T15:21:28;29.70;62.10
48806;DHT22;34625;47.176;27.548;2022-08-19T15:23:56;29.70;62.60
48806;DHT22;34625;47.176;27.548;2022-08-19T15:26:23;29.70;62.70
48806;DHT22;34625;47.176;27.548;2022-08-19T15:28:51;29.60;62.70
48806;DHT22;34625;47.176;27.548;2022-08-19T15:31:20;29.70;62.60
48806;DHT22;34625;47.176;27.548;2022-08-19T15:33:49;29.70;62.70
48806;DHT22;34625;47.176;27.548;2022-08-19T15:36:16;29.80;62.80